createdAt,value
2019-01-20T08:29:54.390Z,62.98
2019-01-20T08:32:24.116Z,66.82
2019-01-20T08:34:53.906Z,63.75
2019-01-20T08:37:28.769Z,73.78
2019-01-20T08:39:55.328Z,63.73
2019-01-20T08:42:25.053Z,67.17
2019-01-20T08:44:54.953Z,62.65
2019-01-20T08:47:37.978Z,65.60
2019-01-20T08:50:11.398Z,62.85
2019-01-20T08:52:41.817Z,61.75
2019-01-20T08:55:12.839Z,59.50
2019-01-20T08:57:42.641Z,64.42
2019-01-20T09:00:17.384Z,61.88
2019-01-20T09:02:47.239Z,58.70
2019-01-20T09:05:17.183Z,55.78
2019-01-20T09:07:46.979Z,53.42
2019-01-20T09:10:20.232Z,53.02
2019-01-20T09:12:50.308Z,58.23
2019-01-20T09:15:20.097Z,59.18
2019-01-20T09:17:49.895Z,59.50
2019-01-20T09:20:19.656Z,61.10
2019-01-20T09:22:49.444Z,58.60
2019-01-20T09:25:19.309Z,56.85
2019-01-20T09:27:49.190Z,51.88
2019-01-20T09:30:20.356Z,53.15
2019-01-20T09:32:50.264Z,49.85
2019-01-20T09:35:20.222Z,46.75
2019-01-20T09:37:50.903Z,45.37
2019-01-20T09:40:20.696Z,44.30
2019-01-20T09:42:50.601Z,48.90
2019-01-20T09:45:27.892Z,45.07
2019-01-20T09:47:57.809Z,45.73
2019-01-20T09:50:30.428Z,48.73
2019-01-20T09:53:01.694Z,45.70
2019-01-20T09:55:34.300Z,51.37
2019-01-20T09:58:05.468Z,46.87
2019-01-20T10:00:35.571Z,47.80
2019-01-20T10:03:05.625Z,43.87
2019-01-20T10:05:35.532Z,53.13
2019-01-20T10:08:05.625Z,45.63
2019-01-20T10:10:35.582Z,48.25
2019-01-20T10:13:05.576Z,46.75
2019-01-20T10:15:35.425Z,47.90
2019-01-20T10:18:05.539Z,58.05
2019-01-20T10:20:35.342Z,51.45
2019-01-20T10:23:05.220Z,48.68
2019-01-20T10:25:35.018Z,49.48
2019-01-20T10:28:06.692Z,51.10
2019-01-20T10:30:37.332Z,55.73
2019-01-20T10:33:07.140Z,53.40
2019-01-20T10:35:39.509Z,45.80
2019-01-20T10:38:10.344Z,48.20
2019-01-20T10:40:40.136Z,46.93
2019-01-20T10:43:09.944Z,46.77
2019-01-20T10:45:39.732Z,46.00
2019-01-20T10:48:09.589Z,47.27
2019-01-20T10:50:39.466Z,50.27
2019-01-20T10:53:09.341Z,41.13
2019-01-20T10:55:39.234Z,51.17
2019-01-20T10:58:09.046Z,49.27
2019-01-20T11:00:40.175Z,62.40
2019-01-20T11:03:10.044Z,55.20
2019-01-20T11:05:40.003Z,60.10
2019-01-20T11:08:09.934Z,63.47
2019-01-20T11:10:40.050Z,64.47
2019-01-20T11:13:10.860Z,62.60
2019-01-20T11:15:40.809Z,64.23
2019-01-20T11:18:10.712Z,63.27
2019-01-20T11:20:40.424Z,62.67
2019-01-20T11:23:10.484Z,63.67
2019-01-20T11:25:42.336Z,64.80
2019-01-20T11:28:19.388Z,64.43
2019-01-20T11:30:49.564Z,64.93
2019-01-20T11:33:19.392Z,58.73
2019-01-20T11:35:49.188Z,60.20
2019-01-20T11:38:19.040Z,62.20
2019-01-20T11:40:48.854Z,59.23
2019-01-20T11:43:18.660Z,56.63
2019-01-20T11:45:48.491Z,55.60
2019-01-20T11:48:18.408Z,50.03
2019-01-20T11:50:49.420Z,52.23
2019-01-20T11:53:19.171Z,51.83
2019-01-20T11:55:49.957Z,51.67
2019-01-20T11:58:19.780Z,50.73
2019-01-20T12:00:49.592Z,53.50
2019-01-20T12:03:19.388Z,52.33
2019-01-20T12:05:49.256Z,53.67
2019-01-20T12:09:38.502Z,49.50
2019-01-20T12:12:07.964Z,54.10
2019-01-20T12:14:39.380Z,55.33
2019-01-20T12:17:08.798Z,58.73
2019-01-20T12:19:38.214Z,56.03
2019-01-20T12:22:07.704Z,59.47
2019-01-20T12:24:37.021Z,53.87
2019-01-20T12:27:06.560Z,58.20
2019-01-20T12:29:35.957Z,54.87
2019-01-20T12:32:05.330Z,59.60
2019-01-20T12:34:34.817Z,63.73
2019-01-20T12:37:04.277Z,57.10
2019-01-20T12:39:33.737Z,59.73
2019-01-20T12:42:03.238Z,60.57
2019-01-20T12:44:32.548Z,95.07
2019-01-20T12:47:03.664Z,78.73
2019-01-20T12:49:32.992Z,66.47
2019-01-20T12:52:02.486Z,61.87
2019-01-20T12:54:34.913Z,63.60
2019-01-20T12:57:04.749Z,64.40
2019-01-20T12:59:34.052Z,66.43
2019-01-20T13:02:05.619Z,63.03
2019-01-20T13:04:35.042Z,64.27
2019-01-20T13:07:05.035Z,61.63
2019-01-20T13:09:34.448Z,60.97
2019-01-20T13:12:03.941Z,61.93
2019-01-20T13:14:38.924Z,59.43
2019-01-20T13:17:04.648Z,56.33
2019-01-20T13:19:34.085Z,64.33
2019-01-20T13:22:03.553Z,57.70
2019-01-20T13:24:32.890Z,64.00
2019-01-20T13:27:02.368Z,66.00
2019-01-20T13:29:31.866Z,62.13
2019-01-20T13:32:01.253Z,62.67
2019-01-20T13:34:30.582Z,64.13
2019-01-20T13:37:00.058Z,61.83
2019-01-20T13:39:29.435Z,59.23
2019-01-20T13:41:58.906Z,75.90
2019-01-20T13:44:28.322Z,65.83
2019-01-20T13:46:57.813Z,65.50
2019-01-20T13:49:27.224Z,65.83
2019-01-20T13:51:56.769Z,69.60
2019-01-20T13:54:26.209Z,66.30
2019-01-20T13:56:55.676Z,63.90
2019-01-20T13:59:25.136Z,69.47
2019-01-20T14:01:54.546Z,66.60
2019-01-20T14:04:24.044Z,72.03
2019-01-20T14:06:54.040Z,71.63
2019-01-20T14:09:23.433Z,62.03
2019-01-20T14:11:52.845Z,61.60
2019-01-20T14:14:22.231Z,64.60
2019-01-20T14:16:51.736Z,65.23
2019-01-20T14:19:21.829Z,61.37
2019-01-20T14:21:51.549Z,62.23
2019-01-20T14:24:20.968Z,69.17
2019-01-20T14:26:50.459Z,61.90
2019-01-20T14:29:19.939Z,65.37
2019-01-20T14:31:49.404Z,60.67
2019-01-20T14:34:18.719Z,63.97
2019-01-20T14:36:48.105Z,57.83
2019-01-20T14:39:17.423Z,62.83
2019-01-20T14:41:46.727Z,63.50
2019-01-20T14:44:16.124Z,60.27
2019-01-20T14:46:45.637Z,68.07
2019-01-20T14:49:15.033Z,69.03
2019-01-20T14:51:44.441Z,62.03
2019-01-20T14:54:13.927Z,63.67
2019-01-20T14:56:43.392Z,66.85
2019-01-20T14:59:12.843Z,62.58
2019-01-20T15:01:42.189Z,64.00
2019-01-20T15:04:11.600Z,64.60
2019-01-20T15:06:41.016Z,63.90
2019-01-20T15:09:10.585Z,62.95
2019-01-20T15:11:40.107Z,64.90
2019-01-20T15:14:09.649Z,62.58
2019-01-20T15:16:39.139Z,65.62
2019-01-20T15:19:08.650Z,65.30
2019-01-20T15:21:38.042Z,64.95
2019-01-20T15:24:07.364Z,63.40
2019-01-20T15:26:36.866Z,62.73
2019-01-20T15:29:06.464Z,57.70
2019-01-20T15:31:35.808Z,64.30
2019-01-20T15:34:05.293Z,57.50
2019-01-20T15:36:34.697Z,57.78
2019-01-20T15:39:04.916Z,64.03
2019-01-20T15:41:34.367Z,63.38
2019-01-20T15:44:04.023Z,64.30
2019-01-20T15:46:33.437Z,69.37
2019-01-20T15:49:02.813Z,59.80
2019-01-20T15:51:32.140Z,66.62
2019-01-20T15:54:01.493Z,68.60
2019-01-20T15:56:34.165Z,67.92
2019-01-20T15:59:02.049Z,70.87
2019-01-20T16:01:31.385Z,72.72
2019-01-20T16:04:00.851Z,70.72
2019-01-20T16:06:30.189Z,63.28
2019-01-20T16:08:59.537Z,66.37
2019-01-20T16:11:31.300Z,65.70
2019-01-20T16:14:00.112Z,66.75
2019-01-20T16:16:29.530Z,62.85
2019-01-20T16:21:37.520Z,65.67
2019-01-20T16:24:16.703Z,68.65
2019-01-20T16:26:52.882Z,70.57
2019-01-20T16:29:22.871Z,65.60
2019-01-20T16:32:11.176Z,70.08
2019-01-20T16:34:41.138Z,68.97
2019-01-20T16:41:00.378Z,79.15
2019-01-20T16:45:42.676Z,64.58
2019-01-20T16:48:13.400Z,70.20
2019-01-20T16:50:43.596Z,72.60
2019-01-20T16:53:32.381Z,73.35
2019-01-20T16:56:08.657Z,67.50
2019-01-20T16:58:38.885Z,77.82
2019-01-20T17:01:09.048Z,68.47
2019-01-20T17:05:55.852Z,75.15
2019-01-20T17:08:25.462Z,67.25
2019-01-20T17:10:54.832Z,76.90
2019-01-20T17:13:24.555Z,76.42
2019-01-20T17:15:53.982Z,77.50
2019-01-20T17:18:23.471Z,79.87
2019-01-20T17:20:52.897Z,79.58
2019-01-20T17:23:22.421Z,75.47
2019-01-20T17:25:51.814Z,79.67
2019-01-20T17:28:21.149Z,78.55
2019-01-20T17:30:50.479Z,78.90
2019-01-20T17:33:19.965Z,70.78
2019-01-20T17:35:49.538Z,72.05
2019-01-20T17:38:18.888Z,72.85
2019-01-20T17:40:48.292Z,105.47
2019-01-20T17:43:17.733Z,128.85
2019-01-20T17:45:49.845Z,114.25
2019-01-20T17:48:18.236Z,106.10
2019-01-20T17:50:47.861Z,85.70
2019-01-20T17:53:17.367Z,84.20
2019-01-20T17:55:46.824Z,82.75
2019-01-20T17:58:16.262Z,81.65
2019-01-20T18:00:51.992Z,81.87
2019-01-20T18:03:21.524Z,83.85
2019-01-20T18:05:51.101Z,81.60
2019-01-20T18:08:20.422Z,81.10
2019-01-20T18:10:49.816Z,88.62
2019-01-20T18:13:21.145Z,83.42
2019-01-20T18:15:54.664Z,87.72
2019-01-20T18:18:21.866Z,91.47
2019-01-20T18:20:51.386Z,80.67
2019-01-20T18:23:21.173Z,84.70
2019-01-20T18:25:50.728Z,82.57
2019-01-20T18:28:20.296Z,80.25
2019-01-20T18:30:49.645Z,88.50
2019-01-20T18:33:19.099Z,84.40
2019-01-20T18:35:49.225Z,77.55
2019-01-20T18:38:18.794Z,80.12
2019-01-20T18:41:42.579Z,82.67
2019-01-20T18:44:12.177Z,78.20
2019-01-20T18:46:41.708Z,86.55
2019-01-20T18:49:11.560Z,73.22
2019-01-20T18:51:41.108Z,81.67
2019-01-20T18:54:10.944Z,80.42
2019-01-20T18:56:40.587Z,83.60
2019-01-20T18:59:10.088Z,84.85
2019-01-20T19:01:39.538Z,84.15
2019-01-20T19:04:08.993Z,83.55
2019-01-20T19:06:38.502Z,75.32
2019-01-20T19:09:08.817Z,80.15
2019-01-20T19:11:38.330Z,86.70
2019-01-20T19:14:08.042Z,85.55
2019-01-20T19:16:37.595Z,76.27
2019-01-20T19:19:07.009Z,78.42
2019-01-20T19:21:36.521Z,85.62
2019-01-20T19:24:06.030Z,85.65
2019-01-20T19:26:35.563Z,90.65
2019-01-20T19:29:05.278Z,85.15
2019-01-20T19:31:34.859Z,82.67
2019-01-20T19:34:04.393Z,83.95
2019-01-20T19:36:33.853Z,85.97
2019-01-20T19:39:03.479Z,89.28
2019-01-20T19:41:33.034Z,88.12
2019-01-20T19:44:02.518Z,80.72
2019-01-20T19:46:32.011Z,90.12
2019-01-20T19:49:01.525Z,84.97
2019-01-20T19:51:31.085Z,84.47
2019-01-20T19:54:00.605Z,89.00
2019-01-20T19:56:30.114Z,90.15
2019-01-20T19:58:59.755Z,85.03
2019-01-20T20:01:30.859Z,84.50
2019-01-20T20:04:00.435Z,95.15
2019-01-20T20:06:29.982Z,88.25
2019-01-20T20:08:59.511Z,84.52
2019-01-20T20:11:29.031Z,85.45
2019-01-20T20:13:58.552Z,94.67
2019-01-20T20:16:27.899Z,91.70
2019-01-20T20:18:57.508Z,90.65
2019-01-20T20:21:27.009Z,92.70
2019-01-20T20:23:56.431Z,96.22
2019-01-20T20:26:25.781Z,87.17
2019-01-20T20:28:58.047Z,97.47
2019-01-20T20:31:30.729Z,89.45
2019-01-20T20:34:00.140Z,80.80
2019-01-20T20:36:29.609Z,98.22
2019-01-20T20:38:59.116Z,93.30
2019-01-20T20:41:28.565Z,92.02
2019-01-20T20:44:01.944Z,90.05
2019-01-20T20:46:40.665Z,91.63
2019-01-20T20:49:10.180Z,90.92
2019-01-20T20:51:39.768Z,91.40
2019-01-20T20:54:12.532Z,91.97
2019-01-20T20:56:42.063Z,89.35
2019-01-20T20:59:13.776Z,92.12
2019-01-20T21:01:43.352Z,88.82
2019-01-20T21:04:12.978Z,91.55
2019-01-20T21:06:42.510Z,87.80
2019-01-20T21:09:12.166Z,90.00
2019-01-20T21:11:41.677Z,90.87
2019-01-20T21:14:11.074Z,86.60
2019-01-20T21:16:40.522Z,90.28
2019-01-20T21:19:15.984Z,98.55
2019-01-20T21:21:45.561Z,88.33
2019-01-20T21:24:15.133Z,85.42
2019-01-20T21:26:44.722Z,89.70
2019-01-20T21:29:14.257Z,86.92
2019-01-20T21:31:43.841Z,84.37
2019-01-20T21:34:13.349Z,83.70
2019-01-20T21:36:42.821Z,95.65
2019-01-20T21:39:12.316Z,84.07
2019-01-20T21:41:41.858Z,92.65
2019-01-20T21:44:11.377Z,92.50
2019-01-20T21:46:45.302Z,95.42
2019-01-20T21:49:14.468Z,85.80
2019-01-20T21:51:43.941Z,96.28
2019-01-20T21:54:13.313Z,94.40
2019-01-20T21:56:42.846Z,93.47
2019-01-20T21:59:12.336Z,84.17
2019-01-20T22:01:41.856Z,95.07
2019-01-20T22:04:11.317Z,95.42
2019-01-20T22:06:40.777Z,95.60
2019-01-20T22:09:10.304Z,86.60
2019-01-20T22:11:39.830Z,86.47
2019-01-20T22:14:09.260Z,86.25
2019-01-20T22:16:38.723Z,88.55
2019-01-20T22:19:08.244Z,90.45
2019-01-20T22:21:37.793Z,90.20
2019-01-20T22:24:07.223Z,88.90
2019-01-20T22:26:36.736Z,91.15
2019-01-20T22:29:06.319Z,85.45
2019-01-20T22:31:36.102Z,89.58
2019-01-20T22:34:05.665Z,90.12
2019-01-20T22:36:35.121Z,87.20
2019-01-20T22:39:07.221Z,89.30
2019-01-20T22:41:36.725Z,89.35
2019-01-20T22:44:06.229Z,83.27
2019-01-20T22:46:35.606Z,80.62
2019-01-20T22:49:05.127Z,91.40
2019-01-20T22:51:34.723Z,88.67
2019-01-20T22:54:04.287Z,89.13
2019-01-20T22:56:33.752Z,87.65
2019-01-20T22:59:03.247Z,90.15
2019-01-20T23:01:32.960Z,90.05
2019-01-20T23:04:02.503Z,86.67
2019-01-20T23:06:32.077Z,85.47
2019-01-20T23:09:06.521Z,85.97
2019-01-20T23:11:32.854Z,87.90
2019-01-20T23:14:02.272Z,89.80
2019-01-20T23:16:31.774Z,86.85
2019-01-20T23:19:01.297Z,92.40
2019-01-20T23:21:30.870Z,89.75
2019-01-20T23:24:00.424Z,92.12
2019-01-20T23:26:29.878Z,84.62
2019-01-20T23:28:59.297Z,86.40
2019-01-20T23:31:28.846Z,89.85
2019-01-20T23:33:58.357Z,85.47
2019-01-20T23:36:27.719Z,88.40
2019-01-20T23:38:57.349Z,89.70
2019-01-20T23:41:26.795Z,82.02
2019-01-20T23:43:56.358Z,88.52
2019-01-20T23:46:25.886Z,93.25
2019-01-20T23:48:55.234Z,96.37
2019-01-20T23:51:24.746Z,90.07
2019-01-20T23:53:54.294Z,92.37
2019-01-20T23:56:25.922Z,95.12
2019-01-20T23:58:55.460Z,98.80
